Time;durP1;ratioP1;P1;durP2;ratioP2;P2;SDS_P1;SDS_P2;PMS_P1;PMS_P2;Temp;Humidity;BMP_temperature;BMP_pressure;BME280_temperature;BME280_humidity;BME280_pressure;Samples;Min_cycle;Max_cycle;Signal;HPM_P1;HPM_P2
2023/03/07 00:02:18;;;;;;;8.35;1.27;;;;;;;;;;5108359;28;20052;-72
2023/03/07 00:04:50;;;;;;;14.18;1.70;;;;;;;;;;5109142;28;20051;-76
2023/03/07 00:07:23;;;;;;;13.00;1.30;;;;;;;;;;5109040;28;20426;-77
2023/03/07 00:09:59;;;;;;;9.95;1.30;;;;;;;;;;5109490;28;20510;-75
2023/03/07 00:12:31;;;;;;;11.82;1.08;;;;;;;;;;5108471;28;20650;-74
2023/03/07 00:15:04;;;;;;;10.93;1.92;;;;;;;;;;5109822;28;20054;-77
2023/03/07 00:17:38;;;;;;;5.78;1.15;;;;;;;;;;5109688;28;20039;-77
2023/03/07 00:20:13;;;;;;;11.43;1.10;;;;;;;;;;5107690;28;20058;-73
2023/03/07 00:22:46;;;;;;;10.18;1.40;;;;;;;;;;5107661;28;20047;-76
2023/03/07 00:25:18;;;;;;;4.38;1.52;;;;;;;;;;5107340;28;20043;-77
2023/03/07 00:27:55;;;;;;;10.30;1.42;;;;;;;;;;5109333;28;20055;-77
2023/03/07 00:30:26;;;;;;;6.38;1.35;;;;;;;;;;5108785;28;20043;-76
2023/03/07 00:32:58;;;;;;;7.63;1.10;;;;;;;;;;5108212;27;20545;-75
2023/03/07 00:35:30;;;;;;;10.20;1.35;;;;;;;;;;5109889;28;20422;-75
2023/03/07 00:38:04;;;;;;;11.00;1.70;;;;;;;;;;5109666;28;20040;-78
2023/03/07 00:40:40;;;;;;;12.43;1.60;;;;;;;;;;5107337;28;20059;-78
2023/03/07 00:43:13;;;;;;;10.65;1.80;;;;;;;;;;5107706;28;20051;-77
2023/03/07 00:45:47;;;;;;;12.25;1.52;;;;;;;;;;5108880;28;20047;-76
2023/03/07 00:48:22;;;;;;;15.70;2.25;;;;;;;;;;5109379;28;20044;-75
2023/03/07 00:50:55;;;;;;;13.20;2.15;;;;;;;;;;5108482;27;20055;-77
2023/03/07 00:53:28;;;;;;;5.07;1.48;;;;;;;;;;5109007;28;20525;-73
2023/03/07 00:56:06;;;;;;;7.18;1.48;;;;;;;;;;5105523;28;20054;-77
2023/03/07 00:58:43;;;;;;;11.10;1.50;;;;;;;;;;5105824;28;20052;-76
2023/03/07 01:01:19;;;;;;;8.55;1.83;;;;;;;;;;5108478;28;20062;-76
2023/03/07 01:03:53;;;;;;;16.25;2.00;;;;;;;;;;5108365;28;20048;-78
2023/03/07 01:06:32;;;;;;;9.50;2.08;;;;;;;;;;5097614;28;20040;-76
2023/03/07 01:09:12;;;;;;;12.57;2.20;;;;;;;;;;5097914;28;20036;-77
2023/03/07 01:11:44;;;;;;;10.38;1.80;;;;;;;;;;5095493;28;20052;-78
2023/03/07 01:14:16;;;;;;;15.30;2.08;;;;;;;;;;5094541;28;20506;-79
2023/03/07 01:16:50;;;;;;;8.20;1.95;;;;;;;;;;5097017;28;20509;-77
2023/03/07 01:19:23;;;;;;;10.05;2.20;;;;;;;;;;5096746;27;20051;-77
2023/03/07 01:21:55;;;;;;;11.93;2.58;;;;;;;;;;5097859;28;20051;-78
2023/03/07 01:24:29;;;;;;;10.38;2.10;;;;;;;;;;5102567;28;20055;-79
2023/03/07 01:27:01;;;;;;;9.27;3.25;;;;;;;;;;5106802;28;20048;-78
2023/03/07 01:29:35;;;;;;;14.95;2.33;;;;;;;;;;5106479;28;20062;-77
2023/03/07 01:32:10;;;;;;;9.70;1.58;;;;;;;;;;5107881;28;20383;-76
2023/03/07 01:34:42;;;;;;;12.65;2.30;;;;;;;;;;5106651;27;20055;-79
2023/03/07 01:37:15;;;;;;;12.00;2.60;;;;;;;;;;5107563;28;20522;-79
2023/03/07 01:39:51;;;;;;;9.55;2.67;;;;;;;;;;5107275;27;20052;-77
2023/03/07 01:42:23;;;;;;;18.50;2.80;;;;;;;;;;5107424;28;20048;-77
2023/03/07 01:45:04;;;;;;;13.90;2.53;;;;;;;;;;5105961;28;20056;-79
2023/03/07 01:47:45;;;;;;;13.48;2.30;;;;;;;;;;5106332;28;20063;-77
2023/03/07 01:50:23;;;;;;;7.70;2.00;;;;;;;;;;5106766;27;20054;-79
2023/03/07 01:52:59;;;;;;;18.58;2.33;;;;;;;;;;5106591;27;20517;-78
2023/03/07 01:55:35;;;;;;;12.10;2.20;;;;;;;;;;5106860;27;20066;-78
2023/03/07 01:58:14;;;;;;;7.47;2.53;;;;;;;;;;5107392;27;20051;-77
2023/03/07 02:00:50;;;;;;;14.32;2.22;;;;;;;;;;5108021;28;20056;-76
2023/03/07 02:03:55;;;;;;;10.90;2.35;;;;;;;;;;5107270;28;20133;-78
2023/03/07 02:06:30;;;;;;;7.03;1.80;;;;;;;;;;5106646;28;20055;-80
2023/03/07 02:09:05;;;;;;;17.20;2.17;;;;;;;;;;5106358;28;20063;-77
2023/03/07 02:11:42;;;;;;;12.85;3.38;;;;;;;;;;5107118;28;20048;-79
2023/03/07 02:14:19;;;;;;;10.30;3.45;;;;;;;;;;5107207;28;20528;-77
2023/03/07 02:16:51;;;;;;;9.25;2.72;;;;;;;;;;5105603;28;20051;-78
2023/03/07 02:19:52;;;;;;;11.18;2.58;;;;;;;;;;5107553;28;20050;-78
2023/03/07 02:22:25;;;;;;;10.60;2.65;;;;;;;;;;5106238;27;20060;-80
2023/03/07 02:25:02;;;;;;;11.30;2.70;;;;;;;;;;5107090;28;20050;-78
2023/03/07 02:27:40;;;;;;;7.68;2.78;;;;;;;;;;5105833;28;20063;-77
2023/03/07 02:30:14;;;;;;;14.80;2.90;;;;;;;;;;5105929;28;20052;-78
2023/03/07 02:32:47;;;;;;;23.67;3.08;;;;;;;;;;5104840;28;20044;-78
2023/03/07 02:35:23;;;;;;;11.82;2.67;;;;;;;;;;5105417;28;20490;-79
2023/03/07 02:38:04;;;;;;;17.15;3.30;;;;;;;;;;5105223;28;20584;-77
2023/03/07 02:40:38;;;;;;;12.55;3.63;;;;;;;;;;5105789;28;20062;-77
2023/03/07 02:43:10;;;;;;;58.40;4.43;;;;;;;;;;5106997;28;20047;-76
2023/03/07 02:45:44;;;;;;;49.28;3.40;;;;;;;;;;5104326;28;20063;-76
2023/03/07 02:48:18;;;;;;;57.72;2.63;;;;;;;;;;5106451;28;20070;-75
2023/03/07 02:50:50;;;;;;;38.20;2.38;;;;;;;;;;5106346;28;20043;-76
2023/03/07 02:53:23;;;;;;;82.20;3.47;;;;;;;;;;5089542;28;20138;-76
2023/03/07 02:55:54;;;;;;;26.75;2.40;;;;;;;;;;5106718;28;20039;-77
2023/03/07 02:58:27;;;;;;;28.73;2.50;;;;;;;;;;5105341;28;20058;-76
2023/03/07 03:00:59;;;;;;;96.97;6.28;;;;;;;;;;5105690;28;20047;-75
2023/03/07 03:03:33;;;;;;;23.95;5.40;;;;;;;;;;5107226;28;20414;-76
2023/03/07 03:06:06;;;;;;;20.33;7.32;;;;;;;;;;5105429;28;20048;-76
2023/03/07 03:08:39;;;;;;;23.92;7.90;;;;;;;;;;5106486;28;20043;-76
2023/03/07 03:11:11;;;;;;;27.48;7.63;;;;;;;;;;5106020;28;20046;-76
2023/03/07 03:13:44;;;;;;;28.52;8.23;;;;;;;;;;5106365;28;20051;-75
2023/03/07 03:16:23;;;;;;;14.77;6.85;;;;;;;;;;5105675;28;20544;-76
2023/03/07 03:18:59;;;;;;;13.73;6.55;;;;;;;;;;5109214;27;20047;-76
2023/03/07 03:21:31;;;;;;;16.23;7.25;;;;;;;;;;5110678;28;20043;-75
2023/03/07 03:24:07;;;;;;;13.95;5.80;;;;;;;;;;5110694;28;20599;-77
2023/03/07 03:26:39;;;;;;;17.95;5.90;;;;;;;;;;5108985;28;20051;-75
2023/03/07 03:29:15;;;;;;;14.15;4.72;;;;;;;;;;5109302;27;20063;-77
2023/03/07 03:31:48;;;;;;;11.88;4.43;;;;;;;;;;5110451;28;20043;-75
2023/03/07 03:34:20;;;;;;;14.60;4.93;;;;;;;;;;5109152;28;20520;-76
2023/03/07 03:36:53;;;;;;;9.57;4.43;;;;;;;;;;5109964;27;20044;-75
2023/03/07 03:39:26;;;;;;;12.75;4.38;;;;;;;;;;5110550;28;20058;-75
2023/03/07 03:42:00;;;;;;;9.88;4.13;;;;;;;;;;5108598;27;20059;-75
2023/03/07 03:44:32;;;;;;;26.15;4.82;;;;;;;;;;5108595;28;20056;-76
2023/03/07 03:47:04;;;;;;;18.75;4.18;;;;;;;;;;5108815;27;20051;-76
2023/03/07 03:49:37;;;;;;;23.73;3.70;;;;;;;;;;5109692;28;20426;-76
2023/03/07 03:52:12;;;;;;;15.13;4.15;;;;;;;;;;5109983;28;20406;-75
2023/03/07 03:54:43;;;;;;;19.85;3.90;;;;;;;;;;5109522;28;20437;-76
2023/03/07 03:57:19;;;;;;;16.40;3.50;;;;;;;;;;5108693;28;20058;-76
2023/03/07 03:59:51;;;;;;;19.92;3.92;;;;;;;;;;5108986;27;20056;-76
2023/03/07 04:02:25;;;;;;;13.80;3.22;;;;;;;;;;5108286;27;20051;-76
2023/03/07 04:04:58;;;;;;;13.52;2.70;;;;;;;;;;5108231;27;20401;-76
2023/03/07 04:07:34;;;;;;;6.85;2.70;;;;;;;;;;5108061;28;20067;-76
2023/03/07 04:10:06;;;;;;;9.35;2.35;;;;;;;;;;5108519;27;20502;-75
2023/03/07 04:12:38;;;;;;;19.55;3.25;;;;;;;;;;5109785;28;20066;-76
2023/03/07 04:15:11;;;;;;;9.90;2.85;;;;;;;;;;5108283;27;20051;-76
2023/03/07 04:17:43;;;;;;;16.27;2.90;;;;;;;;;;5109728;28;20043;-76
2023/03/07 04:20:16;;;;;;;18.02;2.80;;;;;;;;;;5108356;28;20052;-75
2023/03/07 04:22:49;;;;;;;11.23;2.95;;;;;;;;;;5108434;28;20055;-76
2023/03/07 04:25:23;;;;;;;12.95;2.75;;;;;;;;;;5109392;28;20122;-75
2023/03/07 04:27:56;;;;;;;14.32;4.10;;;;;;;;;;5107041;28;20052;-76
2023/03/07 04:30:29;;;;;;;5.93;2.17;;;;;;;;;;5108099;28;20056;-76
2023/03/07 04:33:01;;;;;;;9.93;2.13;;;;;;;;;;5109091;28;20056;-76
2023/03/07 04:35:32;;;;;;;9.40;2.03;;;;;;;;;;5107827;28;20063;-76
2023/03/07 04:38:06;;;;;;;8.48;2.00;;;;;;;;;;5107856;28;20529;-76
2023/03/07 04:40:38;;;;;;;7.32;1.92;;;;;;;;;;5107302;28;20051;-76
2023/03/07 04:43:09;;;;;;;8.82;2.20;;;;;;;;;;5107804;27;20438;-76
2023/03/07 04:45:39;;;;;;;11.90;1.90;;;;;;;;;;5108106;27;20063;-76
2023/03/07 04:48:09;;;;;;;5.88;2.00;;;;;;;;;;5109311;28;20048;-76
2023/03/07 04:50:40;;;;;;;14.80;2.20;;;;;;;;;;5107708;27;20494;-76
2023/03/07 04:53:10;;;;;;;7.10;1.95;;;;;;;;;;5107261;28;20059;-75
2023/03/07 04:55:40;;;;;;;17.83;2.28;;;;;;;;;;5107087;28;20078;-76
2023/03/07 04:58:12;;;;;;;12.65;2.25;;;;;;;;;;5107982;28;20052;-75
2023/03/07 05:00:44;;;;;;;2.08;1.88;;;;;;;;;;5107242;28;20054;-76
2023/03/07 05:03:15;;;;;;;10.38;2.58;;;;;;;;;;5106971;28;20067;-76
2023/03/07 05:05:45;;;;;;;11.20;1.30;;;;;;;;;;5107794;27;20413;-76
2023/03/07 05:08:15;;;;;;;7.93;1.58;;;;;;;;;;5107867;27;20054;-76
2023/03/07 05:10:46;;;;;;;3.03;1.55;;;;;;;;;;5107150;28;20044;-75
2023/03/07 05:13:17;;;;;;;10.77;1.70;;;;;;;;;;5108091;27;20063;-76
2023/03/07 05:15:52;;;;;;;5.00;1.55;;;;;;;;;;5107224;28;20051;-75
2023/03/07 05:18:25;;;;;;;8.43;1.70;;;;;;;;;;5107287;28;20059;-76
2023/03/07 05:20:57;;;;;;;9.43;1.70;;;;;;;;;;5106880;28;20066;-76
2023/03/07 05:23:29;;;;;;;8.45;1.48;;;;;;;;;;5107146;27;20055;-76
2023/03/07 05:26:00;;;;;;;6.72;1.70;;;;;;;;;;5107836;28;20044;-75
2023/03/07 05:28:30;;;;;;;10.18;1.63;;;;;;;;;;5108173;28;20044;-75
2023/03/07 05:31:01;;;;;;;7.07;1.23;;;;;;;;;;5108365;28;20052;-75
2023/03/07 05:33:33;;;;;;;7.63;1.30;;;;;;;;;;5106953;28;20052;-76
2023/03/07 05:36:04;;;;;;;4.97;1.20;;;;;;;;;;5107915;27;20048;-74
2023/03/07 05:38:35;;;;;;;7.03;1.40;;;;;;;;;;5106824;28;20055;-74
2023/03/07 05:41:05;;;;;;;5.47;1.70;;;;;;;;;;5106613;27;20054;-75
2023/03/07 05:43:36;;;;;;;4.68;1.23;;;;;;;;;;5106743;28;20051;-75
2023/03/07 05:46:08;;;;;;;8.60;1.67;;;;;;;;;;5106093;28;20062;-75
2023/03/07 05:48:38;;;;;;;11.45;1.50;;;;;;;;;;5106825;28;20051;-75
2023/03/07 05:51:08;;;;;;;8.02;1.50;;;;;;;;;;5105872;28;20047;-76
2023/03/07 05:53:39;;;;;;;6.72;1.30;;;;;;;;;;5106157;28;20044;-76
2023/03/07 05:56:10;;;;;;;3.65;1.17;;;;;;;;;;5107653;28;20046;-76
2023/03/07 05:58:40;;;;;;;6.63;1.17;;;;;;;;;;5107141;27;20044;-74
2023/03/07 06:01:11;;;;;;;6.03;1.35;;;;;;;;;;5106301;27;20050;-75
2023/03/07 06:03:42;;;;;;;7.72;1.33;;;;;;;;;;5106945;28;20043;-75
2023/03/07 06:06:15;;;;;;;5.20;1.02;;;;;;;;;;5106238;28;20056;-74
2023/03/07 06:08:47;;;;;;;5.20;1.20;;;;;;;;;;5106796;28;20055;-74
2023/03/07 06:11:18;;;;;;;7.18;1.00;;;;;;;;;;5105781;28;20047;-75
2023/03/07 06:13:48;;;;;;;6.20;1.35;;;;;;;;;;5106523;28;20047;-76
2023/03/07 06:16:18;;;;;;;14.82;1.30;;;;;;;;;;5105660;28;20044;-74
2023/03/07 06:18:50;;;;;;;4.25;0.98;;;;;;;;;;5107192;28;20043;-76
2023/03/07 06:21:20;;;;;;;4.68;0.93;;;;;;;;;;5107819;28;20052;-76
2023/03/07 06:23:51;;;;;;;8.98;1.30;;;;;;;;;;5106373;27;20051;-75
2023/03/07 06:26:23;;;;;;;1.45;1.00;;;;;;;;;;5106218;28;20048;-74
2023/03/07 06:28:56;;;;;;;7.53;1.30;;;;;;;;;;5105894;28;20648;-76
2023/03/07 06:31:27;;;;;;;2.40;0.98;;;;;;;;;;5107252;28;20040;-75
2023/03/07 06:33:59;;;;;;;4.60;1.10;;;;;;;;;;5105928;28;20059;-74
2023/03/07 06:36:30;;;;;;;7.95;1.00;;;;;;;;;;5106079;28;20437;-75
2023/03/07 06:39:02;;;;;;;6.63;0.90;;;;;;;;;;5105782;28;20058;-75
2023/03/07 06:41:34;;;;;;;7.72;0.90;;;;;;;;;;5106027;28;20063;-75
2023/03/07 06:44:05;;;;;;;4.35;0.82;;;;;;;;;;5105730;28;20095;-75
2023/03/07 06:46:35;;;;;;;2.55;0.93;;;;;;;;;;5106339;28;20051;-75
2023/03/07 06:49:12;;;;;;;44.58;1.60;;;;;;;;;;5089855;28;20490;-76
2023/03/07 06:51:43;;;;;;;7.68;1.13;;;;;;;;;;5107704;28;20545;-75
2023/03/07 06:54:13;;;;;;;3.70;1.08;;;;;;;;;;5109716;28;20509;-76
2023/03/07 06:56:45;;;;;;;3.53;0.82;;;;;;;;;;5109864;28;20573;-75
2023/03/07 06:59:19;;;;;;;4.78;1.20;;;;;;;;;;5109720;28;20094;-75
2023/03/07 07:01:50;;;;;;;10.82;1.00;;;;;;;;;;5109445;28;20051;-76
2023/03/07 07:04:22;;;;;;;14.00;1.17;;;;;;;;;;5109416;27;20064;-75
2023/03/07 07:06:53;;;;;;;18.92;1.00;;;;;;;;;;5109865;28;20051;-76
2023/03/07 07:09:25;;;;;;;10.38;1.10;;;;;;;;;;5110036;27;20059;-75
2023/03/07 07:11:55;;;;;;;4.60;1.08;;;;;;;;;;5111718;28;20055;-76
2023/03/07 07:14:26;;;;;;;7.53;1.17;;;;;;;;;;5109663;27;20058;-76
2023/03/07 07:16:56;;;;;;;12.50;1.55;;;;;;;;;;5110085;27;20059;-76
2023/03/07 07:19:28;;;;;;;35.28;1.60;;;;;;;;;;5108784;28;20062;-75
2023/03/07 07:21:59;;;;;;;34.15;1.65;;;;;;;;;;5109083;27;20055;-75
2023/03/07 07:24:30;;;;;;;14.20;1.02;;;;;;;;;;5110240;28;20051;-75
2023/03/07 07:27:00;;;;;;;29.17;1.85;;;;;;;;;;5109369;27;20540;-75
2023/03/07 07:29:31;;;;;;;28.90;1.33;;;;;;;;;;5109696;27;20430;-76
2023/03/07 07:32:03;;;;;;;13.55;1.25;;;;;;;;;;5109327;28;20517;-75
2023/03/07 07:34:34;;;;;;;19.70;2.17;;;;;;;;;;5109770;27;20050;-75
2023/03/07 07:37:05;;;;;;;20.02;1.30;;;;;;;;;;5109641;27;20054;-74
2023/03/07 07:39:39;;;;;;;33.78;1.80;;;;;;;;;;5110040;28;20050;-74
2023/03/07 07:42:11;;;;;;;77.32;3.13;;;;;;;;;;5109239;27;20048;-76
2023/03/07 07:44:54;;;;;;;57.03;1.95;;;;;;;;;;5108829;28;20540;-77
2023/03/07 07:47:25;;;;;;;62.28;2.40;;;;;;;;;;5108581;28;20051;-76
2023/03/07 07:49:56;;;;;;;43.33;1.70;;;;;;;;;;5108782;27;20533;-75
2023/03/07 07:52:27;;;;;;;39.65;1.50;;;;;;;;;;5109140;28;20052;-75
2023/03/07 07:54:57;;;;;;;28.90;1.77;;;;;;;;;;5110167;28;20048;-76
2023/03/07 07:57:28;;;;;;;48.63;1.60;;;;;;;;;;5108692;28;20050;-74
2023/03/07 08:00:00;;;;;;;56.38;2.60;;;;;;;;;;5109172;28;20047;-76
2023/03/07 08:02:39;;;;;;;47.08;2.45;;;;;;;;;;5115387;28;20078;-74
2023/03/07 08:05:09;;;;;;;33.13;1.60;;;;;;;;;;5109701;28;20039;-74
2023/03/07 08:07:39;;;;;;;41.90;1.80;;;;;;;;;;5109983;28;20498;-77
2023/03/07 08:10:14;;;;;;;42.83;1.65;;;;;;;;;;5109584;28;20043;-75
2023/03/07 08:12:51;;;;;;;54.85;2.55;;;;;;;;;;5109497;28;20060;-76
2023/03/07 08:15:21;;;;;;;77.65;2.20;;;;;;;;;;5109819;28;20047;-75
2023/03/07 08:17:52;;;;;;;35.15;1.58;;;;;;;;;;5109168;28;20046;-75
2023/03/07 08:20:24;;;;;;;36.58;1.77;;;;;;;;;;5109992;28;20047;-75
2023/03/07 08:22:54;;;;;;;37.65;2.22;;;;;;;;;;5109397;28;20062;-76
2023/03/07 08:25:24;;;;;;;31.95;1.73;;;;;;;;;;5109551;28;20525;-75
2023/03/07 08:27:56;;;;;;;51.50;2.17;;;;;;;;;;5109618;28;20056;-75
2023/03/07 08:30:30;;;;;;;60.03;2.58;;;;;;;;;;5108906;28;21210;-76
2023/03/07 08:33:01;;;;;;;36.38;1.23;;;;;;;;;;5108187;28;20403;-76
2023/03/07 08:35:32;;;;;;;108.38;4.10;;;;;;;;;;5109291;28;20047;-77
2023/03/07 08:38:02;;;;;;;93.60;3.90;;;;;;;;;;5109070;28;20051;-76
2023/03/07 08:40:34;;;;;;;125.05;2.70;;;;;;;;;;5109745;28;20390;-74
2023/03/07 08:43:06;;;;;;;100.90;2.63;;;;;;;;;;5108432;28;20058;-77
2023/03/07 08:45:38;;;;;;;83.82;2.33;;;;;;;;;;5107134;28;20054;-75
2023/03/07 08:48:09;;;;;;;67.40;3.15;;;;;;;;;;5108115;28;20676;-76
2023/03/07 08:50:40;;;;;;;60.78;2.30;;;;;;;;;;5109354;28;20048;-75
2023/03/07 08:53:16;;;;;;;99.00;4.65;;;;;;;;;;5107725;28;20051;-75
2023/03/07 08:55:47;;;;;;;54.13;2.75;;;;;;;;;;5109057;28;20048;-75
2023/03/07 08:58:17;;;;;;;59.28;3.13;;;;;;;;;;5109079;28;20397;-74
2023/03/07 09:00:47;;;;;;;64.38;1.92;;;;;;;;;;5109172;28;20043;-76
2023/03/07 09:03:18;;;;;;;69.55;1.98;;;;;;;;;;5108827;28;20485;-76
2023/03/07 09:05:48;;;;;;;68.30;1.90;;;;;;;;;;5108526;28;20493;-76
2023/03/07 09:08:18;;;;;;;81.45;2.10;;;;;;;;;;5108815;28;20062;-74
2023/03/07 09:10:48;;;;;;;74.53;2.60;;;;;;;;;;5107363;27;20051;-74
2023/03/07 09:13:19;;;;;;;69.07;2.72;;;;;;;;;;5108985;28;20046;-74
2023/03/07 09:15:50;;;;;;;27.27;1.70;;;;;;;;;;5107421;28;20055;-75
2023/03/07 09:18:23;;;;;;;36.45;1.83;;;;;;;;;;5108644;28;20040;-75
2023/03/07 09:20:53;;;;;;;89.68;2.72;;;;;;;;;;5108515;28;20402;-75
2023/03/07 09:23:24;;;;;;;37.75;1.63;;;;;;;;;;5107725;28;20035;-75
2023/03/07 09:26:01;;;;;;;55.85;2.00;;;;;;;;;;5108132;28;20592;-76
2023/03/07 09:28:31;;;;;;;31.15;1.60;;;;;;;;;;5108127;28;20529;-75
2023/03/07 09:31:12;;;;;;;27.90;1.63;;;;;;;;;;5108457;28;20703;-76
2023/03/07 09:33:43;;;;;;;;;;;;;;;;;;5109082;28;20043;-76
2023/03/07 09:36:16;;;;;;;27.00;1.40;;;;;;;;;;5108325;28;19928;-77
2023/03/07 09:38:47;;;;;;;32.65;1.58;;;;;;;;;;5106605;28;20067;-77
2023/03/07 09:41:30;;;;;;;28.80;1.88;;;;;;;;;;5106198;28;20048;-76
2023/03/07 09:44:28;;;;;;;65.75;2.10;;;;;;;;;;5107451;28;20051;-75
2023/03/07 09:47:37;;;;;;;58.13;1.80;;;;;;;;;;5112587;28;20043;-75
2023/03/07 09:50:17;;;;;;;57.28;1.90;;;;;;;;;;5107587;28;20047;-76
2023/03/07 09:52:48;;;;;;;34.83;2.25;;;;;;;;;;5107186;28;20070;-76
2023/03/07 09:55:20;;;;;;;41.47;1.70;;;;;;;;;;5106897;28;20109;-76
2023/03/07 09:57:54;;;;;;;33.58;1.35;;;;;;;;;;5107243;28;20417;-78
2023/03/07 10:00:34;;;;;;;59.63;1.95;;;;;;;;;;5107043;27;20062;-79
2023/03/07 10:03:11;;;;;;;42.05;1.58;;;;;;;;;;5107269;28;20051;-76
2023/03/07 10:05:49;;;;;;;28.90;1.33;;;;;;;;;;5107450;28;20054;-76
2023/03/07 10:08:40;;;;;;;52.40;1.80;;;;;;;;;;5107408;28;20040;-76
2023/03/07 10:11:28;;;;;;;22.25;2.40;;;;;;;;;;5107336;28;20044;-75
2023/03/07 10:14:03;;;;;;;;;;;;;;;;;;5107999;28;20600;-75
2023/03/07 10:16:50;;;;;;;39.30;2.00;;;;;;;;;;5106984;28;19919;-74
2023/03/07 10:19:47;;;;;;;20.90;1.00;;;;;;;;;;5106612;28;20051;-74
2023/03/07 10:22:49;;;;;;;23.83;1.10;;;;;;;;;;5107834;28;20048;-75
2023/03/07 10:25:30;;;;;;;22.27;1.17;;;;;;;;;;5106961;28;20532;-75
2023/03/07 10:28:31;;;;;;;20.83;2.95;;;;;;;;;;5107010;28;20039;-76
2023/03/07 10:31:32;;;;;;;39.28;1.70;;;;;;;;;;5107250;28;20048;-76
2023/03/07 10:34:15;;;;;;;14.70;1.35;;;;;;;;;;5107088;28;20390;-75
2023/03/07 10:37:50;;;;;;;11.38;1.92;;;;;;;;;;5106949;28;20052;-75
2023/03/07 10:40:39;;;;;;;4.28;1.23;;;;;;;;;;5099327;28;20056;-75
2023/03/07 10:43:24;;;;;;;5.07;2.03;;;;;;;;;;5107167;28;20047;-74
2023/03/07 10:46:10;;;;;;;8.32;2.17;;;;;;;;;;5107303;28;20071;-79
2023/03/07 10:49:20;;;;;;;3.33;0.98;;;;;;;;;;5107047;28;20494;-75
2023/03/07 10:52:12;;;;;;;3.38;1.20;;;;;;;;;;5106821;28;20066;-75
2023/03/07 10:54:43;;;;;;;8.52;1.40;;;;;;;;;;5106388;28;20051;-75
2023/03/07 10:57:15;;;;;;;1.92;0.90;;;;;;;;;;5106483;28;20429;-74
2023/03/07 10:59:47;;;;;;;4.70;1.13;;;;;;;;;;5105666;28;20055;-74
2023/03/07 11:02:43;;;;;;;1.63;0.80;;;;;;;;;;5107106;28;20402;-75
2023/03/07 11:05:25;;;;;;;2.88;1.00;;;;;;;;;;5106477;28;20043;-75
2023/03/07 11:07:56;;;;;;;5.97;1.35;;;;;;;;;;5106506;28;20043;-76
2023/03/07 11:10:39;;;;;;;6.35;1.10;;;;;;;;;;5106836;28;20035;-75
2023/03/07 11:13:21;;;;;;;0.82;0.65;;;;;;;;;;5104572;28;20079;-74
2023/03/07 11:16:08;;;;;;;25.77;9.82;;;;;;;;;;5104660;28;20047;-76
2023/03/07 11:18:44;;;;;;;5.22;0.90;;;;;;;;;;5106888;28;20043;-75
2023/03/07 11:21:35;;;;;;;6.60;3.22;;;;;;;;;;5106757;28;20051;-76
2023/03/07 11:24:24;;;;;;;13.00;6.20;;;;;;;;;;5106716;28;20043;-76
2023/03/07 11:26:56;;;;;;;1.90;0.85;;;;;;;;;;5106677;28;20424;-74
2023/03/07 11:29:32;;;;;;;5.35;1.60;;;;;;;;;;5106646;28;20502;-76
2023/03/07 11:32:10;;;;;;;1.83;1.08;;;;;;;;;;5105836;28;20043;-73
2023/03/07 11:34:52;;;;;;;7.95;0.98;;;;;;;;;;5106801;28;20043;-73
2023/03/07 11:37:25;;;;;;;2.42;0.70;;;;;;;;;;5104869;28;20054;-74
2023/03/07 11:40:14;;;;;;;3.33;0.60;;;;;;;;;;5109229;27;20542;-73
2023/03/07 11:43:04;;;;;;;4.15;0.55;;;;;;;;;;5109941;28;20418;-73
2023/03/07 11:46:11;;;;;;;3.38;0.60;;;;;;;;;;5109853;28;20051;-74
2023/03/07 11:49:04;;;;;;;25.73;3.15;;;;;;;;;;5110165;28;20070;-74
2023/03/07 11:51:59;;;;;;;12.35;1.50;;;;;;;;;;5109209;28;20058;-74
2023/03/07 11:54:29;;;;;;;7.03;0.88;;;;;;;;;;5110081;28;20044;-74
2023/03/07 11:57:31;;;;;;;7.35;1.25;;;;;;;;;;5111042;28;20048;-73
2023/03/07 12:00:23;;;;;;;2.72;0.70;;;;;;;;;;5108335;28;20070;-74
2023/03/07 12:03:16;;;;;;;20.10;1.65;;;;;;;;;;5110384;28;20048;-74
2023/03/07 12:06:23;;;;;;;2.85;0.98;;;;;;;;;;5105560;28;20510;-74
2023/03/07 12:09:09;;;;;;;0.93;0.70;;;;;;;;;;5107250;28;20047;-74
2023/03/07 12:11:57;;;;;;;6.05;0.73;;;;;;;;;;5107559;28;20410;-74
2023/03/07 12:14:45;;;;;;;4.95;0.60;;;;;;;;;;5107708;28;20043;-74
2023/03/07 12:17:52;;;;;;;5.60;1.00;;;;;;;;;;5107545;28;20043;-74
2023/03/07 12:20:29;;;;;;;1.75;0.40;;;;;;;;;;5109556;28;20058;-74
2023/03/07 12:23:32;;;;;;;11.68;0.95;;;;;;;;;;5108266;28;20514;-74
2023/03/07 12:26:13;;;;;;;3.35;0.52;;;;;;;;;;5108786;28;20552;-74
2023/03/07 12:28:47;;;;;;;5.88;0.43;;;;;;;;;;5109601;28;20392;-74
2023/03/07 12:31:26;;;;;;;3.40;0.57;;;;;;;;;;5109201;28;20062;-74
2023/03/07 12:34:08;;;;;;;1.33;0.20;;;;;;;;;;5108478;28;20055;-74
2023/03/07 12:36:57;;;;;;;1.48;0.70;;;;;;;;;;5107155;28;20047;-74
2023/03/07 12:39:35;;;;;;;0.65;0.50;;;;;;;;;;5108090;28;20054;-75
2023/03/07 12:42:36;;;;;;;0.77;0.30;;;;;;;;;;5107555;28;20050;-75
2023/03/07 12:45:15;;;;;;;2.33;0.50;;;;;;;;;;5109173;28;20055;-76
2023/03/07 12:47:56;;;;;;;0.50;0.30;;;;;;;;;;5108726;28;20046;-73
2023/03/07 12:50:47;;;;;;;0.40;0.40;;;;;;;;;;5108764;28;20047;-75
2023/03/07 12:53:34;;;;;;;2.47;0.55;;;;;;;;;;5108675;28;20047;-74
2023/03/07 12:56:19;;;;;;;2.88;1.20;;;;;;;;;;5106281;28;20055;-76
2023/03/07 12:59:12;;;;;;;4.43;0.80;;;;;;;;;;5107525;28;20044;-75
2023/03/07 13:01:50;;;;;;;3.10;0.70;;;;;;;;;;5108157;28;20406;-75
2023/03/07 13:04:32;;;;;;;2.70;0.85;;;;;;;;;;5105697;28;20048;-75
2023/03/07 13:07:15;;;;;;;2.35;0.82;;;;;;;;;;5107556;28;20040;-74
2023/03/07 13:09:48;;;;;;;2.08;0.70;;;;;;;;;;5108363;28;20044;-78
2023/03/07 13:12:28;;;;;;;4.03;0.80;;;;;;;;;;5108964;28;20631;-74
2023/03/07 13:15:03;;;;;;;3.38;0.82;;;;;;;;;;5108355;28;20044;-75
2023/03/07 13:17:37;;;;;;;2.75;0.63;;;;;;;;;;5107317;28;20506;-76
2023/03/07 13:20:19;;;;;;;2.53;0.60;;;;;;;;;;5108107;28;20035;-75
2023/03/07 13:22:50;;;;;;;3.72;0.60;;;;;;;;;;5107039;27;20054;-76
2023/03/07 13:25:22;;;;;;;4.00;0.75;;;;;;;;;;5107976;28;20048;-76
2023/03/07 13:28:00;;;;;;;4.18;0.77;;;;;;;;;;5108806;28;20043;-75
2023/03/07 13:30:33;;;;;;;3.45;0.85;;;;;;;;;;5108179;28;20050;-75
2023/03/07 13:33:25;;;;;;;2.83;0.50;;;;;;;;;;5108225;28;20043;-75
2023/03/07 13:35:58;;;;;;;2.78;0.60;;;;;;;;;;5108266;28;20040;-73
2023/03/07 13:38:42;;;;;;;1.40;0.70;;;;;;;;;;5107431;28;20051;-73
2023/03/07 13:41:33;;;;;;;2.85;0.65;;;;;;;;;;5107525;28;20698;-73
2023/03/07 13:44:05;;;;;;;0.65;0.60;;;;;;;;;;5106256;28;20055;-76
2023/03/07 13:46:38;;;;;;;1.02;0.60;;;;;;;;;;5107734;28;20044;-74
2023/03/07 13:49:09;;;;;;;4.30;1.75;;;;;;;;;;5108094;28;20051;-74
2023/03/07 13:51:39;;;;;;;1.27;0.68;;;;;;;;;;5107674;28;20065;-75
2023/03/07 13:54:12;;;;;;;4.32;0.68;;;;;;;;;;5107847;28;20068;-74
2023/03/07 13:56:43;;;;;;;11.55;1.00;;;;;;;;;;5107036;28;20075;-74
2023/03/07 13:59:13;;;;;;;4.00;0.80;;;;;;;;;;5107531;28;20051;-74
2023/03/07 14:01:57;;;;;;;2.58;0.65;;;;;;;;;;5103452;28;20051;-76
2023/03/07 14:04:38;;;;;;;1.85;0.55;;;;;;;;;;5107958;28;20059;-75
2023/03/07 14:07:14;;;;;;;9.70;0.90;;;;;;;;;;5105839;28;20043;-75
2023/03/07 14:09:55;;;;;;;1.55;0.60;;;;;;;;;;5105644;28;20056;-74
2023/03/07 14:12:46;;;;;;;3.50;0.70;;;;;;;;;;5107676;28;20046;-75
2023/03/07 14:15:24;;;;;;;1.70;0.52;;;;;;;;;;5107387;28;20410;-73
2023/03/07 14:18:13;;;;;;;6.55;1.13;;;;;;;;;;5107885;28;20052;-74
2023/03/07 14:20:59;;;;;;;1.52;0.60;;;;;;;;;;5107364;28;20055;-74
2023/03/07 14:24:01;;;;;;;0.80;0.60;;;;;;;;;;5107027;28;20043;-74
2023/03/07 14:26:33;;;;;;;1.48;0.60;;;;;;;;;;5106527;28;20055;-74
2023/03/07 14:29:30;;;;;;;2.90;1.00;;;;;;;;;;5093127;28;20502;-73
2023/03/07 14:32:01;;;;;;;7.53;1.88;;;;;;;;;;5086426;28;20063;-75
2023/03/07 14:34:36;;;;;;;3.17;0.70;;;;;;;;;;5086415;28;20044;-75
2023/03/07 14:37:11;;;;;;;6.55;0.80;;;;;;;;;;5086722;28;20043;-73
2023/03/07 14:39:59;;;;;;;5.78;1.25;;;;;;;;;;5085585;28;20033;-73
2023/03/07 14:42:39;;;;;;;1.08;0.57;;;;;;;;;;5086535;28;20047;-73
2023/03/07 14:45:33;;;;;;;3.55;1.02;;;;;;;;;;5085084;28;20067;-73
2023/03/07 14:48:28;;;;;;;1.75;0.80;;;;;;;;;;5086307;28;20315;-73
2023/03/07 14:51:12;;;;;;;1.92;0.80;;;;;;;;;;5085729;28;20040;-75
2023/03/07 14:53:43;;;;;;;3.17;0.85;;;;;;;;;;5086058;28;20051;-73
2023/03/07 14:56:23;;;;;;;4.88;0.90;;;;;;;;;;5086319;28;20059;-77
2023/03/07 14:58:59;;;;;;;5.78;1.08;;;;;;;;;;5086183;28;20102;-73
2023/03/07 15:01:38;;;;;;;1.77;0.80;;;;;;;;;;5085924;28;20056;-74
2023/03/07 15:04:22;;;;;;;3.45;1.00;;;;;;;;;;5086380;28;20052;-74
2023/03/07 15:06:59;;;;;;;2.88;0.80;;;;;;;;;;5086089;28;20066;-77
2023/03/07 15:09:32;;;;;;;1.02;0.50;;;;;;;;;;5086185;28;20798;-74
2023/03/07 15:12:17;;;;;;;3.03;1.52;;;;;;;;;;5086921;28;20502;-74
2023/03/07 15:14:49;;;;;;;1.85;0.65;;;;;;;;;;5088991;28;20067;-75
2023/03/07 15:17:35;;;;;;;3.20;0.90;;;;;;;;;;5089329;28;20071;-74
2023/03/07 15:20:15;;;;;;;2.28;0.93;;;;;;;;;;5090126;28;20520;-74
2023/03/07 15:22:46;;;;;;;2.75;0.75;;;;;;;;;;5088267;28;20044;-74
2023/03/07 15:25:22;;;;;;;2.05;1.08;;;;;;;;;;5088501;28;20047;-74
2023/03/07 15:28:03;;;;;;;2.15;0.60;;;;;;;;;;5090167;28;20422;-74
2023/03/07 15:30:37;;;;;;;2.15;0.98;;;;;;;;;;5108617;28;20043;-74
2023/03/07 15:33:20;;;;;;;1.83;0.68;;;;;;;;;;5109534;28;20067;-74